createdAt,value
2022-12-08T00:00:33.269Z,89.06
2022-12-08T00:02:36.417Z,88.28
2022-12-08T00:04:59.579Z,88.82
2022-12-08T00:07:19.999Z,89.50
2022-12-08T00:09:23.701Z,89.83
2022-12-08T00:11:26.689Z,90.13
2022-12-08T00:13:29.690Z,89.27
2022-12-08T00:15:34.099Z,89.27
2022-12-08T00:17:37.116Z,89.34
2022-12-08T00:19:41.097Z,89.27
2022-12-08T00:21:44.175Z,89.81
2022-12-08T00:23:47.275Z,89.56
2022-12-08T00:25:50.334Z,89.80
2022-12-08T00:27:53.495Z,89.25
2022-12-08T00:29:56.460Z,89.92
2022-12-08T00:32:00.972Z,89.56
2022-12-08T00:34:04.140Z,90.30
2022-12-08T00:36:08.058Z,89.86
2022-12-08T00:38:11.031Z,90.14
2022-12-08T00:40:14.176Z,89.70
2022-12-08T00:42:17.510Z,89.76
2022-12-08T00:44:20.772Z,90.13
2022-12-08T00:46:23.783Z,91.04
2022-12-08T00:48:28.211Z,90.19
2022-12-08T00:50:32.645Z,90.37
2022-12-08T00:52:35.615Z,90.11
2022-12-08T00:54:38.805Z,90.58
2022-12-08T00:56:41.849Z,90.89
2022-12-08T00:58:44.889Z,90.97
2022-12-08T01:00:47.889Z,91.25
2022-12-08T01:02:51.015Z,91.40
2022-12-08T01:04:55.526Z,91.11
2022-12-08T01:06:58.540Z,90.93
2022-12-08T01:09:02.496Z,90.70
2022-12-08T01:11:06.051Z,90.38
2022-12-08T01:13:09.124Z,90.79
2022-12-08T01:15:12.484Z,90.10
2022-12-08T01:17:15.476Z,90.68
2022-12-08T01:19:18.710Z,89.71
2022-12-08T01:21:23.121Z,90.39
2022-12-08T01:23:26.127Z,89.66
2022-12-08T01:25:29.119Z,90.35
2022-12-08T01:27:32.163Z,90.56
2022-12-08T01:29:35.557Z,90.08
2022-12-08T01:31:38.722Z,90.33
2022-12-08T01:33:42.104Z,91.05
2022-12-08T01:35:45.267Z,91.42
2022-12-08T01:37:51.440Z,90.90
2022-12-08T01:39:54.431Z,90.42
2022-12-08T01:41:57.392Z,90.37
2022-12-08T01:44:02.205Z,90.25
2022-12-08T01:46:05.557Z,89.22
2022-12-08T01:48:12.399Z,90.32
2022-12-08T01:50:17.273Z,90.13
2022-12-08T01:52:25.037Z,90.07
2022-12-08T01:54:31.833Z,90.89
2022-12-08T01:56:39.746Z,90.96
2022-12-08T01:58:46.449Z,90.92
2022-12-08T02:00:50.233Z,91.09
2022-12-08T02:02:56.578Z,90.09
2022-12-08T02:04:59.751Z,91.07
2022-12-08T02:07:07.948Z,91.47
2022-12-08T02:09:12.014Z,91.09
2022-12-08T02:11:17.227Z,90.66
2022-12-08T02:13:21.568Z,89.38
2022-12-08T02:15:32.637Z,89.82
2022-12-08T02:17:50.676Z,89.19
2022-12-08T02:20:21.319Z,90.04
2022-12-08T02:22:29.463Z,90.16
2022-12-08T02:24:38.420Z,89.83
2022-12-08T02:27:09.520Z,89.40
2022-12-08T02:29:36.302Z,88.93
2022-12-08T02:31:52.115Z,89.50
2022-12-08T02:34:06.428Z,89.45
2022-12-08T02:36:15.820Z,89.52
2022-12-08T02:38:22.868Z,89.57
2022-12-08T02:40:29.969Z,89.43
2022-12-08T02:42:36.588Z,89.56
2022-12-08T02:44:42.933Z,89.42
2022-12-08T02:46:57.286Z,88.79
2022-12-08T02:49:02.150Z,90.02
2022-12-08T02:51:06.782Z,89.99
2022-12-08T02:55:19.694Z,89.52
2022-12-08T02:57:33.171Z,89.55
2022-12-08T02:59:49.027Z,89.50
2022-12-08T03:02:11.404Z,89.49
2022-12-08T03:04:23.830Z,89.53
2022-12-08T03:06:29.960Z,89.17
2022-12-08T03:08:36.418Z,89.37
2022-12-08T03:10:43.341Z,89.73
2022-12-08T03:12:50.657Z,89.73
2022-12-08T03:14:55.323Z,89.89
2022-12-08T03:16:59.020Z,89.28
2022-12-08T03:19:04.676Z,89.33
2022-12-08T03:21:10.454Z,89.46
2022-12-08T03:23:15.372Z,89.86
2022-12-08T03:25:22.202Z,88.99
2022-12-08T03:27:27.520Z,89.18
2022-12-08T03:29:30.795Z,90.28
2022-12-08T03:31:35.751Z,89.51
2022-12-08T03:33:40.755Z,89.41
2022-12-08T03:35:44.340Z,89.55
2022-12-08T03:37:48.881Z,89.31
2022-12-08T03:39:51.849Z,89.76
2022-12-08T03:41:54.906Z,88.88
2022-12-08T03:43:59.421Z,89.55
2022-12-08T03:46:02.581Z,88.86
2022-12-08T03:48:05.826Z,88.31
2022-12-08T03:50:09.758Z,88.79
2022-12-08T03:52:12.802Z,88.47
2022-12-08T03:54:17.128Z,88.06
2022-12-08T03:56:24.350Z,88.50
2022-12-08T03:58:28.471Z,88.07
2022-12-08T04:00:33.838Z,87.85
2022-12-08T04:02:36.898Z,89.11
2022-12-08T04:04:39.990Z,89.46
2022-12-08T04:06:43.085Z,89.65
2022-12-08T04:08:46.188Z,89.02
2022-12-08T04:10:50.586Z,89.00
2022-12-08T04:12:53.580Z,88.68
2022-12-08T04:14:56.515Z,88.28
2022-12-08T04:16:59.504Z,87.77
2022-12-08T04:19:02.625Z,87.38
2022-12-08T04:21:05.806Z,87.63
2022-12-08T04:23:12.002Z,87.97
2022-12-08T04:25:15.488Z,87.88
2022-12-08T04:27:19.821Z,87.83
2022-12-08T04:29:22.798Z,87.57
2022-12-08T04:31:25.802Z,87.70
2022-12-08T04:33:28.976Z,87.53
2022-12-08T04:35:32.507Z,87.80
2022-12-08T04:37:35.498Z,87.54
2022-12-08T04:39:38.469Z,87.26
2022-12-08T04:41:41.447Z,87.04
2022-12-08T04:43:45.735Z,86.85
2022-12-08T04:45:48.725Z,86.92
2022-12-08T04:47:51.785Z,87.01
2022-12-08T04:49:54.783Z,86.75
2022-12-08T04:51:57.753Z,86.96
2022-12-08T04:54:00.788Z,86.90
2022-12-08T04:56:03.929Z,86.59
2022-12-08T04:58:07.041Z,86.24
2022-12-08T05:00:14.699Z,86.13
2022-12-08T05:02:17.787Z,86.40
2022-12-08T05:04:20.880Z,86.28
2022-12-08T05:06:24.628Z,86.44
2022-12-08T05:08:27.699Z,86.62
2022-12-08T05:10:30.690Z,86.41
2022-12-08T05:12:33.649Z,86.26
2022-12-08T05:14:36.763Z,86.43
2022-12-08T05:16:41.240Z,86.47
2022-12-08T05:18:44.512Z,86.28
2022-12-08T05:20:47.845Z,85.75
2022-12-08T05:22:50.875Z,86.35
2022-12-08T05:24:53.804Z,85.99
2022-12-08T05:26:56.741Z,86.20
2022-12-08T05:28:59.688Z,85.78
2022-12-08T05:31:02.795Z,86.26
2022-12-08T05:33:07.195Z,86.56
2022-12-08T05:35:10.689Z,86.68
2022-12-08T05:37:13.719Z,87.33
2022-12-08T05:39:16.967Z,86.93
2022-12-08T05:41:21.622Z,87.41
2022-12-08T05:43:24.808Z,87.80
2022-12-08T05:45:28.057Z,88.62
2022-12-08T05:47:35.890Z,88.84
2022-12-08T05:49:40.664Z,88.84
2022-12-08T05:51:43.867Z,89.85
2022-12-08T05:53:47.642Z,89.72
2022-12-08T05:55:50.631Z,89.55
2022-12-08T05:57:57.364Z,89.50
2022-12-08T06:00:00.711Z,89.15
2022-12-08T06:02:04.130Z,89.53
2022-12-08T06:04:07.423Z,89.90
2022-12-08T06:06:11.813Z,89.11
2022-12-08T06:08:14.962Z,89.18
2022-12-08T06:10:18.303Z,88.64
2022-12-08T06:12:21.833Z,89.14
2022-12-08T06:14:24.823Z,89.49
2022-12-08T06:16:28.981Z,89.07
2022-12-08T06:18:33.026Z,88.55
2022-12-08T06:20:36.185Z,88.70
2022-12-08T06:22:40.624Z,89.00
2022-12-08T06:24:43.726Z,89.30
2022-12-08T06:26:46.954Z,89.48
2022-12-08T06:28:50.399Z,89.75
2022-12-08T06:30:53.402Z,89.94
2022-12-08T06:32:56.486Z,88.92
2022-12-08T06:34:59.449Z,89.82
2022-12-08T06:37:02.460Z,89.83
2022-12-08T06:39:06.969Z,90.01
2022-12-08T06:41:10.029Z,89.88
2022-12-08T06:43:12.040Z,89.84
2022-12-08T06:45:16.746Z,90.15
2022-12-08T06:47:24.647Z,90.71
2022-12-08T06:49:29.076Z,90.39
2022-12-08T06:51:33.736Z,89.83
2022-12-08T06:53:36.894Z,89.93
2022-12-08T06:56:01.322Z,89.57
2022-12-08T06:58:04.343Z,89.94
2022-12-08T07:00:08.658Z,89.54
2022-12-08T07:02:12.399Z,89.56
2022-12-08T07:04:15.481Z,89.30
2022-12-08T07:06:21.780Z,89.50
2022-12-08T07:08:25.009Z,88.37
2022-12-08T07:10:28.202Z,88.38
2022-12-08T07:12:32.541Z,87.52
2022-12-08T07:14:35.607Z,88.02
2022-12-08T07:16:39.325Z,88.60
2022-12-08T07:18:42.963Z,88.16
2022-12-08T07:20:46.056Z,88.71
2022-12-08T07:22:50.142Z,89.23
2022-12-08T07:24:53.142Z,89.05
2022-12-08T07:26:56.111Z,89.31
2022-12-08T07:29:01.337Z,88.71
2022-12-08T07:31:06.003Z,88.38
2022-12-08T07:33:09.184Z,87.57
2022-12-08T07:35:12.554Z,86.77
2022-12-08T07:37:15.591Z,86.37
2022-12-08T07:39:18.571Z,86.51
2022-12-08T07:41:23.690Z,86.45
2022-12-08T07:43:27.234Z,87.04
2022-12-08T07:45:32.019Z,86.80
2022-12-08T07:47:35.119Z,86.08
2022-12-08T07:49:38.115Z,86.67
2022-12-08T07:51:42.216Z,86.65
2022-12-08T07:53:53.206Z,86.91
2022-12-08T07:55:56.763Z,86.99
2022-12-08T07:57:59.752Z,88.00
2022-12-08T08:00:03.804Z,87.25
2022-12-08T08:02:26.962Z,86.30
2022-12-08T08:04:30.154Z,86.37
2022-12-08T08:06:34.512Z,87.39
2022-12-08T08:08:37.504Z,86.87
2022-12-08T08:10:40.538Z,85.83
2022-12-08T08:12:43.611Z,85.74
2022-12-08T08:14:46.687Z,86.19
2022-12-08T08:16:49.858Z,86.20
2022-12-08T08:18:54.664Z,86.38
2022-12-08T08:20:58.135Z,86.72
2022-12-08T08:23:01.303Z,86.50
2022-12-08T08:25:04.817Z,86.55
2022-12-08T08:27:07.924Z,86.65
2022-12-08T08:29:11.050Z,87.26
2022-12-08T08:31:14.170Z,86.88
2022-12-08T08:33:17.295Z,87.22
2022-12-08T08:35:21.593Z,87.99
2022-12-08T08:37:24.666Z,87.52
2022-12-08T08:39:30.355Z,87.43
2022-12-08T08:41:33.428Z,88.11
2022-12-08T08:43:38.552Z,88.34
2022-12-08T08:45:42.396Z,87.78
2022-12-08T08:47:45.403Z,87.30
2022-12-08T08:49:48.661Z,86.91
2022-12-08T08:51:53.156Z,85.59
2022-12-08T08:53:56.204Z,85.56
2022-12-08T08:56:02.444Z,84.96
2022-12-08T08:58:05.722Z,85.67
2022-12-08T09:00:10.773Z,85.71
2022-12-08T09:02:17.251Z,85.77
2022-12-08T09:04:20.963Z,86.63
2022-12-08T09:06:24.820Z,86.31
2022-12-08T09:08:29.365Z,86.74
2022-12-08T09:10:32.633Z,86.65
2022-12-08T09:12:35.657Z,86.22
2022-12-08T09:14:38.798Z,87.12
2022-12-08T09:16:42.567Z,85.98
2022-12-08T09:18:45.836Z,85.23
2022-12-08T09:20:48.948Z,84.77
2022-12-08T09:22:52.169Z,84.70
2022-12-08T09:24:56.593Z,85.43
2022-12-08T09:26:59.621Z,86.47
2022-12-08T09:29:02.777Z,86.29
2022-12-08T09:31:06.124Z,85.91
2022-12-08T09:33:10.226Z,85.85
2022-12-08T09:35:13.444Z,85.48
2022-12-08T09:37:16.709Z,84.84
2022-12-08T09:39:19.740Z,84.05
2022-12-08T09:41:40.288Z,84.56
2022-12-08T09:43:54.099Z,84.54
2022-12-08T09:45:57.310Z,86.14
2022-12-08T09:48:04.431Z,84.66
2022-12-08T09:50:14.078Z,84.78
2022-12-08T09:52:21.832Z,84.77
2022-12-08T09:54:30.735Z,83.79
2022-12-08T09:56:37.691Z,84.19
2022-12-08T09:58:47.654Z,82.61
2022-12-08T10:00:50.713Z,82.61
2022-12-08T10:02:53.879Z,82.86
2022-12-08T10:04:58.027Z,82.35
2022-12-08T10:07:05.844Z,81.51
2022-12-08T10:09:22.671Z,81.93
2022-12-08T10:11:31.121Z,79.63
2022-12-08T10:13:39.964Z,79.92
2022-12-08T10:15:47.264Z,78.07
2022-12-08T10:17:52.045Z,79.28
2022-12-08T10:19:58.985Z,78.18
2022-12-08T10:22:02.581Z,78.21
2022-12-08T10:24:13.032Z,78.71
2022-12-08T10:26:18.386Z,79.28
2022-12-08T10:28:21.364Z,78.70
2022-12-08T10:30:25.803Z,79.02
2022-12-08T10:32:35.078Z,78.94
2022-12-08T10:35:05.852Z,79.34
2022-12-08T10:37:10.832Z,79.02
2022-12-08T10:39:32.432Z,78.38
2022-12-08T10:41:35.678Z,78.34
2022-12-08T10:43:43.921Z,77.60
2022-12-08T10:45:48.538Z,77.09
2022-12-08T10:47:59.400Z,76.50
2022-12-08T10:50:21.110Z,76.50
2022-12-08T10:52:24.404Z,77.74
2022-12-08T10:54:29.654Z,76.36
2022-12-08T10:56:33.241Z,78.13
2022-12-08T10:58:40.476Z,76.03
2022-12-08T11:00:43.565Z,77.70
2022-12-08T11:03:02.064Z,77.71
2022-12-08T11:05:05.354Z,76.98
2022-12-08T11:07:10.992Z,76.89
2022-12-08T11:09:37.832Z,77.79
2022-12-08T11:11:45.898Z,77.89
2022-12-08T11:13:49.967Z,77.36
2022-12-08T11:15:53.995Z,78.27
2022-12-08T11:18:04.096Z,77.91
2022-12-08T11:20:21.738Z,77.84
2022-12-08T11:22:27.403Z,78.36
2022-12-08T11:24:34.690Z,76.99
2022-12-08T11:26:40.499Z,78.06
2022-12-08T11:28:43.574Z,77.21
2022-12-08T11:30:49.133Z,77.68
2022-12-08T11:32:54.759Z,77.49
2022-12-08T11:35:02.660Z,78.76
2022-12-08T11:37:06.784Z,78.82
2022-12-08T11:39:11.598Z,78.34
2022-12-08T11:41:17.638Z,77.29
2022-12-08T11:43:24.259Z,76.98
2022-12-08T11:45:30.859Z,77.82
2022-12-08T11:47:37.747Z,77.48
2022-12-08T11:49:42.461Z,77.59
2022-12-08T11:51:49.646Z,77.94
2022-12-08T11:54:06.363Z,77.22
2022-12-08T11:56:16.454Z,76.96
2022-12-08T11:58:21.609Z,77.22
2022-12-08T12:00:25.119Z,76.67
2022-12-08T12:02:30.040Z,77.77
2022-12-08T12:04:34.829Z,77.57
2022-12-08T12:07:09.046Z,76.53
2022-12-08T12:09:16.591Z,77.00
2022-12-08T12:11:39.944Z,77.34
2022-12-08T12:14:00.722Z,76.08
2022-12-08T12:16:31.553Z,76.21
2022-12-08T12:18:40.323Z,75.66
2022-12-08T12:20:49.209Z,76.91
2022-12-08T12:22:57.940Z,75.97
2022-12-08T12:25:01.247Z,76.61
2022-12-08T12:27:09.142Z,76.26
2022-12-08T12:29:17.419Z,76.30
2022-12-08T12:31:24.586Z,76.37
2022-12-08T12:33:28.864Z,75.21
2022-12-08T12:35:34.874Z,76.42
2022-12-08T12:37:40.619Z,75.31
2022-12-08T12:39:51.688Z,75.98
2022-12-08T12:41:57.520Z,75.08
2022-12-08T12:44:40.735Z,75.36
2022-12-08T12:46:55.568Z,75.66
2022-12-08T12:49:45.785Z,75.42
2022-12-08T12:51:55.300Z,76.17
2022-12-08T12:54:21.772Z,75.35
2022-12-08T12:56:51.899Z,76.56
2022-12-08T12:58:55.353Z,76.34
2022-12-08T13:01:31.666Z,75.95
2022-12-08T13:03:36.015Z,75.27
2022-12-08T13:05:49.782Z,74.97
2022-12-08T13:07:55.249Z,74.60
2022-12-08T13:10:01.631Z,75.44
2022-12-08T13:12:11.528Z,74.82
2022-12-08T13:14:28.384Z,74.45
2022-12-08T13:16:34.350Z,74.48
2022-12-08T13:18:39.168Z,74.00
2022-12-08T13:20:44.249Z,74.79
2022-12-08T13:23:05.177Z,73.01
2022-12-08T13:25:47.648Z,73.00
2022-12-08T13:27:55.253Z,74.36
2022-12-08T13:30:31.599Z,73.27
2022-12-08T13:33:17.239Z,75.67
2022-12-08T13:35:19.181Z,76.28
2022-12-08T13:37:27.269Z,75.12
2022-12-08T13:39:35.107Z,75.78
2022-12-08T13:41:40.197Z,74.66
2022-12-08T13:44:20.064Z,75.65
2022-12-08T13:47:02.841Z,75.41
2022-12-08T13:50:15.613Z,74.94
2022-12-08T13:58:28.056Z,74.54
2022-12-08T14:00:32.837Z,75.59
2022-12-08T14:02:40.823Z,75.03
2022-12-08T14:07:13.021Z,75.46
2022-12-08T14:09:18.420Z,75.95
2022-12-08T14:11:34.465Z,74.96
2022-12-08T14:13:37.586Z,75.80
2022-12-08T14:15:42.091Z,75.05
2022-12-08T14:17:51.869Z,74.67
2022-12-08T14:19:56.860Z,75.64
2022-12-08T14:22:01.534Z,76.30
2022-12-08T14:24:04.913Z,75.89
2022-12-08T14:26:08.178Z,75.92
2022-12-08T14:28:11.816Z,74.58
2022-12-08T14:30:21.228Z,74.46
2022-12-08T14:32:31.363Z,75.58
2022-12-08T14:34:40.552Z,76.35
2022-12-08T14:36:43.771Z,75.68
2022-12-08T14:38:46.944Z,76.48
2022-12-08T14:40:51.737Z,74.98
2022-12-08T14:43:05.255Z,76.44
2022-12-08T14:45:12.706Z,76.82
2022-12-08T14:47:20.947Z,76.82
2022-12-08T14:49:34.856Z,77.67
2022-12-08T14:51:38.007Z,76.79
2022-12-08T14:53:42.845Z,77.84
2022-12-08T14:55:47.559Z,78.04
2022-12-08T14:57:50.554Z,78.39
2022-12-08T14:59:53.682Z,79.22
2022-12-08T15:02:13.881Z,78.91
2022-12-08T15:04:20.900Z,79.18
2022-12-08T15:06:25.786Z,78.64
2022-12-08T15:08:29.931Z,77.21
2022-12-08T15:10:38.135Z,76.59
2022-12-08T15:12:41.493Z,76.63
2022-12-08T15:14:56.559Z,75.96
2022-12-08T15:16:59.707Z,76.53
2022-12-08T15:19:08.808Z,76.91
2022-12-08T15:21:14.934Z,76.45
2022-12-08T15:23:30.737Z,76.62
2022-12-08T15:25:35.043Z,77.32
2022-12-08T15:27:48.335Z,77.38
2022-12-08T15:29:53.898Z,78.06
2022-12-08T15:31:58.740Z,78.82
2022-12-08T15:34:02.287Z,79.46
2022-12-08T15:36:05.813Z,78.65
2022-12-08T15:38:18.229Z,79.36
2022-12-08T15:40:26.039Z,78.43
2022-12-08T15:42:29.169Z,77.79
2022-12-08T15:44:33.005Z,77.87
2022-12-08T15:46:36.261Z,78.04
2022-12-08T15:48:39.530Z,77.88
2022-12-08T15:50:42.708Z,78.26
2022-12-08T15:52:45.885Z,77.98
2022-12-08T15:54:50.211Z,78.36
2022-12-08T15:57:18.698Z,78.31
2022-12-08T15:59:20.780Z,78.26
2022-12-08T16:01:24.100Z,77.84
2022-12-08T16:06:20.527Z,77.23
2022-12-08T16:08:44.561Z,78.21
2022-12-08T16:11:24.188Z,77.94
2022-12-08T16:15:53.637Z,78.31
2022-12-08T16:18:02.634Z,78.20
2022-12-08T16:20:08.564Z,77.63
2022-12-08T16:22:51.718Z,78.31
2022-12-08T16:24:41.488Z,78.17
2022-12-08T16:27:58.110Z,79.01
2022-12-08T16:29:09.669Z,78.34
2022-12-08T16:31:17.744Z,79.24
2022-12-08T16:33:24.869Z,79.25
2022-12-08T16:35:29.232Z,79.18
2022-12-08T16:37:32.438Z,78.57
2022-12-08T16:39:38.726Z,79.01
2022-12-08T16:42:01.907Z,79.15
2022-12-08T16:44:07.377Z,79.62
2022-12-08T16:46:18.870Z,80.43
2022-12-08T16:48:22.763Z,80.94
2022-12-08T16:50:27.378Z,81.06
2022-12-08T16:52:30.476Z,81.54
2022-12-08T16:54:33.503Z,81.06
2022-12-08T16:56:36.629Z,80.98
2022-12-08T16:58:39.902Z,81.18
2022-12-08T17:00:43.408Z,81.28
2022-12-08T17:02:49.656Z,81.72
2022-12-08T17:04:54.030Z,81.65
2022-12-08T17:06:58.222Z,81.53
2022-12-08T17:09:01.992Z,81.21
2022-12-08T17:11:10.254Z,81.58
2022-12-08T17:13:16.899Z,81.72
2022-12-08T17:15:23.815Z,82.18
2022-12-08T17:17:27.045Z,81.96
2022-12-08T17:19:31.464Z,81.58
2022-12-08T17:21:35.611Z,81.61
2022-12-08T17:23:40.909Z,80.61
2022-12-08T17:25:45.708Z,81.19
2022-12-08T17:27:48.805Z,81.23
2022-12-08T17:29:52.024Z,80.80
2022-12-08T17:31:55.120Z,80.36
2022-12-08T17:33:59.385Z,79.98
2022-12-08T17:36:04.126Z,79.96
2022-12-08T17:38:07.144Z,80.28
2022-12-08T17:40:10.938Z,80.82
2022-12-08T17:42:14.001Z,81.07
2022-12-08T17:44:18.365Z,81.19
2022-12-08T17:46:22.551Z,81.38
2022-12-08T17:48:25.738Z,81.27
2022-12-08T17:50:28.774Z,81.18
2022-12-08T17:52:33.193Z,80.97
2022-12-08T17:54:36.453Z,81.03
2022-12-08T17:56:39.599Z,81.16
2022-12-08T17:58:42.757Z,80.88
2022-12-08T18:00:45.944Z,80.45
2022-12-08T18:02:49.012Z,80.66
2022-12-08T18:04:52.068Z,80.66
2022-12-08T18:06:55.322Z,80.87
2022-12-08T18:09:00.839Z,80.71
2022-12-08T18:11:04.655Z,81.16
2022-12-08T18:13:07.829Z,81.74
2022-12-08T18:15:13.547Z,81.88
2022-12-08T18:17:16.989Z,82.32
2022-12-08T18:19:20.331Z,82.94
2022-12-08T18:21:23.962Z,81.99
2022-12-08T18:23:27.163Z,81.28
2022-12-08T18:25:31.692Z,80.65
2022-12-08T18:27:39.915Z,80.30
2022-12-08T18:29:45.938Z,79.76
2022-12-08T18:31:50.157Z,79.90
2022-12-08T18:33:53.505Z,79.22
2022-12-08T18:35:56.579Z,79.57
2022-12-08T18:38:00.192Z,79.20
2022-12-08T18:40:03.619Z,79.48
2022-12-08T18:42:22.543Z,80.24
2022-12-08T18:44:26.249Z,80.03
2022-12-08T18:46:29.428Z,81.04
2022-12-08T18:48:32.516Z,81.12
2022-12-08T18:50:35.765Z,81.74
2022-12-08T18:52:38.883Z,82.41
2022-12-08T18:55:05.053Z,82.70
2022-12-08T18:57:05.279Z,82.66
2022-12-08T18:59:12.266Z,83.22
2022-12-08T19:01:15.651Z,83.37
2022-12-08T19:03:18.744Z,83.02
2022-12-08T19:05:21.777Z,83.45
2022-12-08T19:07:24.857Z,83.40
2022-12-08T19:09:28.991Z,82.83
2022-12-08T19:11:32.174Z,82.30
2022-12-08T19:13:35.264Z,82.53
2022-12-08T19:15:39.831Z,82.72
2022-12-08T19:17:42.904Z,82.67
2022-12-08T19:19:45.975Z,82.69
2022-12-08T19:21:49.154Z,83.06
2022-12-08T19:23:52.760Z,83.38
2022-12-08T19:25:55.847Z,83.60
2022-12-08T19:28:01.087Z,83.81
2022-12-08T19:30:05.608Z,83.15
2022-12-08T19:32:10.443Z,82.99
2022-12-08T19:34:14.698Z,83.22
2022-12-08T19:36:19.904Z,83.08
2022-12-08T19:38:23.072Z,82.20
2022-12-08T19:40:46.788Z,82.32
2022-12-08T19:43:07.474Z,83.03
2022-12-08T19:45:12.849Z,83.44
2022-12-08T19:47:17.338Z,83.92
2022-12-08T19:49:20.454Z,84.30
2022-12-08T19:51:23.550Z,83.45
2022-12-08T19:53:26.662Z,83.75
2022-12-08T19:55:30.295Z,83.37
2022-12-08T19:57:33.805Z,83.41
2022-12-08T19:59:36.944Z,84.48
2022-12-08T20:01:40.394Z,84.34
2022-12-08T20:03:45.274Z,84.10
2022-12-08T20:05:51.055Z,84.06
2022-12-08T20:07:56.105Z,84.66
2022-12-08T20:09:59.373Z,84.51
2022-12-08T20:12:02.737Z,84.68
2022-12-08T20:14:06.244Z,84.30
2022-12-08T20:16:09.950Z,84.02
2022-12-08T20:18:14.978Z,83.61
2022-12-08T20:20:19.905Z,83.90
2022-12-08T20:22:23.140Z,84.41
2022-12-08T20:24:26.311Z,84.77
2022-12-08T20:26:29.472Z,84.96
2022-12-08T20:28:32.702Z,84.39
2022-12-08T20:30:36.154Z,84.06
2022-12-08T20:32:39.279Z,84.66
2022-12-08T20:34:42.439Z,84.05
2022-12-08T20:36:47.248Z,84.29
2022-12-08T20:38:51.669Z,84.07
2022-12-08T20:40:54.933Z,84.74
2022-12-08T20:42:58.483Z,85.32
2022-12-08T20:45:01.724Z,85.12
2022-12-08T20:47:05.036Z,84.85
2022-12-08T20:49:08.781Z,86.00
2022-12-08T20:51:14.257Z,86.28
2022-12-08T20:53:18.974Z,85.30
2022-12-08T20:55:22.514Z,85.30
2022-12-08T20:57:26.041Z,85.80
2022-12-08T20:59:29.283Z,85.14
2022-12-08T21:01:32.528Z,84.89
2022-12-08T21:03:35.989Z,84.67
2022-12-08T21:05:39.882Z,85.29
2022-12-08T21:07:43.306Z,85.27
2022-12-08T21:09:48.388Z,85.27
2022-12-08T21:11:51.828Z,84.79
2022-12-08T21:13:55.015Z,86.41
2022-12-08T21:15:58.883Z,86.52
2022-12-08T21:18:02.476Z,86.06
2022-12-08T21:20:08.246Z,85.25
2022-12-08T21:22:12.553Z,85.40
2022-12-08T21:24:16.392Z,85.49
2022-12-08T21:26:25.826Z,85.43
2022-12-08T21:28:29.525Z,85.96
2022-12-08T21:30:32.736Z,85.61
2022-12-08T21:32:36.264Z,85.05
2022-12-08T21:34:39.510Z,84.88
2022-12-08T21:36:42.758Z,85.18
2022-12-08T21:38:46.526Z,84.65
2022-12-08T21:40:49.761Z,84.72
2022-12-08T21:42:53.403Z,83.90
2022-12-08T21:44:56.653Z,83.88
2022-12-08T21:46:59.815Z,83.29
2022-12-08T21:49:03.143Z,84.33
2022-12-08T21:51:06.613Z,84.66
2022-12-08T21:53:10.844Z,84.60
2022-12-08T21:55:14.729Z,84.11
2022-12-08T21:57:17.992Z,84.59
2022-12-08T21:59:22.724Z,85.16
2022-12-08T22:01:26.136Z,84.26
2022-12-08T22:03:30.088Z,84.43
2022-12-08T22:05:33.606Z,84.62
2022-12-08T22:07:39.038Z,84.50
2022-12-08T22:09:42.774Z,83.92
2022-12-08T22:11:46.089Z,83.89
2022-12-08T22:13:49.567Z,84.42
2022-12-08T22:15:58.379Z,84.73
2022-12-08T22:18:01.686Z,83.93
2022-12-08T22:20:06.599Z,84.30
2022-12-08T22:22:10.232Z,83.79
2022-12-08T22:24:13.359Z,84.46
2022-12-08T22:26:16.644Z,83.53
2022-12-08T22:28:19.720Z,84.26
2022-12-08T22:30:22.766Z,84.84
2022-12-08T22:32:27.301Z,84.08
2022-12-08T22:34:30.509Z,85.00
2022-12-08T22:36:33.933Z,84.50
2022-12-08T22:38:36.991Z,84.48
2022-12-08T22:40:41.202Z,85.10
2022-12-08T22:42:44.213Z,85.18
2022-12-08T22:44:47.253Z,85.05
2022-12-08T22:46:50.255Z,85.17
2022-12-08T22:48:55.714Z,84.44
2022-12-08T22:50:59.689Z,84.69
2022-12-08T22:53:02.957Z,84.91
2022-12-08T22:55:06.977Z,84.87
2022-12-08T22:57:10.301Z,85.44
2022-12-08T22:59:13.487Z,85.46
2022-12-08T23:01:25.022Z,85.24
2022-12-08T23:03:28.296Z,85.61
2022-12-08T23:05:35.183Z,85.15
2022-12-08T23:07:38.566Z,85.19
2022-12-08T23:09:41.751Z,85.58
2022-12-08T23:11:44.980Z,85.71
2022-12-08T23:13:48.143Z,85.71
2022-12-08T23:15:51.359Z,85.75
2022-12-08T23:17:54.658Z,85.61
2022-12-08T23:19:57.727Z,85.70
2022-12-08T23:22:02.095Z,85.83
2022-12-08T23:24:05.948Z,85.71
2022-12-08T23:26:16.987Z,85.90
2022-12-08T23:28:20.193Z,86.02
2022-12-08T23:30:23.202Z,86.72
2022-12-08T23:32:26.758Z,86.41
2022-12-08T23:34:29.838Z,86.41
2022-12-08T23:36:33.005Z,86.26
2022-12-08T23:38:37.457Z,86.22
2022-12-08T23:40:40.570Z,86.86
2022-12-08T23:42:43.851Z,86.71
2022-12-08T23:44:46.982Z,87.00
2022-12-08T23:46:50.364Z,86.82
2022-12-08T23:48:53.777Z,87.13
2022-12-08T23:50:57.597Z,86.86
2022-12-08T23:53:00.663Z,86.80
2022-12-08T23:55:05.643Z,86.75
2022-12-08T23:57:09.045Z,86.83
2022-12-08T23:59:12.075Z,86.51
